M/V Oriole — WDE6982 — position and weather

sailwx.info

Track history (hours):
 
Tides and Currents Weather Stations Pressure Air Temp Water Temp Dewpoint Dewpoint Depression Visibility Wind Speed Wind Dir Waves Ship Positions

M/V Oriole

Owner: NATIVE SON INC., ST. THOMAS, VI. More information available from US FCC via Universal Licensing System and Coast Guard Vessel Documentation Center.

Last reported at 2016-Dec-05 16:11 UTC. Time now 2016-Dec-09 02:06 UTC.
Position N 18°20' W 064°49'.

Length 25 m.

Type: Passenger vessel. MMSI: 366755670.

Date/timePositionNaut miles runAvg speedWind from/ knotsBaromVisibWave heightAir tempDewpointWater temp
2016-Dec-05 16:11N 18°20' W 064°49'6 8.9
2016-Dec-05 15:33N 18°23' W 064°44'2 0.1
2016-Dec-04 19:32N 18°23' W 064°42'7 1.5
2016-Dec-04 14:32N 18°20' W 064°49'10 9.1
2016-Dec-04 13:25N 18°23' W 064°39'6 0.4
2016-Dec-03 21:31N 18°22' W 064°45'3 1.4
2016-Dec-03 19:32N 18°23' W 064°42'14 3.4
2016-Dec-03 15:30N 18°20' W 064°56'5 2.4
2016-Dec-03 13:33N 18°18' W 064°52'1010.4
2016-Dec-03 12:32N 18°23' W 064°42'6 6.0
2016-Dec-03 11:31N 18°20' W 064°48'6 0.5
2016-Dec-02 22:32N 18°23' W 064°42'6 5.5
2016-Dec-02 21:22N 18°20' W 064°48'2 2.8
2016-Dec-02 20:34N 18°22' W 064°46'4 1.1
2016-Dec-02 16:33N 18°23' W 064°42'7 2.4
2016-Dec-02 13:33N 18°20' W 064°49'7 7.0
2016-Dec-02 12:32N 18°23' W 064°42'6 5.2
2016-Dec-02 11:22N 18°20' W 064°48'6 7.3
2016-Dec-02 10:33N 18°23' W 064°42'0 0.0
2016-Dec-01 21:33N 18°23' W 064°42'6 4.8
2016-Dec-01 20:18N 18°20' W 064°48'3 3.9
2016-Dec-01 19:33N 18°22' W 064°46'4 2.0
2016-Dec-01 17:26N 18°20' W 064°50'8 8.0
2016-Dec-01 16:26N 18°23' W 064°42'6 2.1
2016-Dec-01 13:30N 18°20' W 064°48'5 5.5
2016-Dec-01 12:33N 18°23' W 064°43'5 3.9
2016-Dec-01 11:12N 18°20' W 064°48'10 0.8
2016-Nov-30 22:18N 18°24' W 064°38'1215.7
2016-Nov-30 21:33N 18°20' W 064°50'2 1.8
2016-Nov-30 20:29N 18°20' W 064°48'2 0.6
2016-Nov-30 17:19N 18°20' W 064°50'8 8.8
2016-Nov-30 16:25N 18°23' W 064°42'7 2.3
2016-Nov-30 13:17N 18°19' W 064°49'710.1
2016-Nov-30 12:33N 18°23' W 064°42'6 6.2
2016-Nov-30 11:32N 18°20' W 064°48'8 7.6
2016-Nov-30 10:33N 18°23' W 064°41'3 0.2
2016-Nov-29 22:33N 18°24' W 064°38'10 4.8
2016-Nov-29 20:27N 18°20' W 064°48'2 2.6
2016-Nov-29 19:33N 18°22' W 064°46'4 1.8
2016-Nov-29 17:16N 18°20' W 064°50'810.9
2016-Nov-29 16:30N 18°23' W 064°42'8 2.5
2016-Nov-29 13:16N 18°20' W 064°50'811.0
2016-Nov-29 12:32N 18°23' W 064°42'8 8.1
2016-Nov-29 11:31N 18°20' W 064°50'8 8.2
2016-Nov-29 10:33N 18°23' W 064°42'2 0.2
2016-Nov-28 21:33N 18°23' W 064°45'4 3.8
2016-Nov-28 20:32N 18°20' W 064°48'4 3.8
2016-Nov-28 19:33N 18°23' W 064°45'6 2.8
2016-Nov-28 17:29N 18°20' W 064°50'8 8.6
2016-Nov-28 16:32N 18°23' W 064°42'8 2.6
2016-Nov-28 13:33N 18°20' W 064°49'5 5.3
2016-Nov-28 12:33N 18°23' W 064°45'4 3.0
2016-Nov-28 11:18N 18°20' W 064°48'9 0.6
2016-Nov-27 20:23N 18°23' W 064°39'6 7.4
2016-Nov-27 19:33N 18°22' W 064°45'5 0.2
2016-Nov-26 22:14N 18°20' W 064°49'6 8.4
2016-Nov-26 21:33N 18°23' W 064°44'6 0.3
2016-Nov-25 22:17N 18°24' W 064°38'1212.2
2016-Nov-25 21:17N 18°20' W 064°50'3 3.5
2016-Nov-25 20:33N 18°21' W 064°47'2 0.8
2016-Nov-25 17:26N 18°20' W 064°50'8 7.8
2016-Nov-25 16:25N 18°23' W 064°42'  
Track history (hours):
 
Tides and Currents Weather Stations Pressure Air Temp Water Temp Dewpoint Dewpoint Depression Visibility Wind Speed Wind Dir Waves Ship Positions

M/V Oriole

Owner: NATIVE SON INC., ST. THOMAS, VI. More information available from US FCC via Universal Licensing System and Coast Guard Vessel Documentation Center.

Last reported at 2016-Dec-05 16:11 UTC. Time now 2016-Dec-09 02:06 UTC.
Position N 18°20' W 064°49'.

Length 25 m.

Type: Passenger vessel. MMSI: 366755670.

Date/timePositionNaut miles runAvg speedWind from/ knotsBaromVisibWave heightAir tempDewpointWater temp
2016-Dec-05 16:11N 18°20' W 064°49'6 8.9
2016-Dec-05 15:33N 18°23' W 064°44'2 0.1
2016-Dec-04 19:32N 18°23' W 064°42'7 1.5
2016-Dec-04 14:32N 18°20' W 064°49'10 9.1
2016-Dec-04 13:25N 18°23' W 064°39'6 0.4
2016-Dec-03 21:31N 18°22' W 064°45'3 1.4
2016-Dec-03 19:32N 18°23' W 064°42'14 3.4
2016-Dec-03 15:30N 18°20' W 064°56'5 2.4
2016-Dec-03 13:33N 18°18' W 064°52'1010.4
2016-Dec-03 12:32N 18°23' W 064°42'6 6.0
2016-Dec-03 11:31N 18°20' W 064°48'6 0.5
2016-Dec-02 22:32N 18°23' W 064°42'6 5.5
2016-Dec-02 21:22N 18°20' W 064°48'2 2.8
2016-Dec-02 20:34N 18°22' W 064°46'4 1.1
2016-Dec-02 16:33N 18°23' W 064°42'7 2.4
2016-Dec-02 13:33N 18°20' W 064°49'7 7.0
2016-Dec-02 12:32N 18°23' W 064°42'6 5.2
2016-Dec-02 11:22N 18°20' W 064°48'6 7.3
2016-Dec-02 10:33N 18°23' W 064°42'0 0.0
2016-Dec-01 21:33N 18°23' W 064°42'6 4.8
2016-Dec-01 20:18N 18°20' W 064°48'3 3.9
2016-Dec-01 19:33N 18°22' W 064°46'4 2.0
2016-Dec-01 17:26N 18°20' W 064°50'8 8.0
2016-Dec-01 16:26N 18°23' W 064°42'6 2.1
2016-Dec-01 13:30N 18°20' W 064°48'5 5.5
2016-Dec-01 12:33N 18°23' W 064°43'5 3.9
2016-Dec-01 11:12N 18°20' W 064°48'10 0.8
2016-Nov-30 22:18N 18°24' W 064°38'1215.7
2016-Nov-30 21:33N 18°20' W 064°50'2 1.8
2016-Nov-30 20:29N 18°20' W 064°48'2 0.6
2016-Nov-30 17:19N 18°20' W 064°50'8 8.8
2016-Nov-30 16:25N 18°23' W 064°42'7 2.3
2016-Nov-30 13:17N 18°19' W 064°49'710.1
2016-Nov-30 12:33N 18°23' W 064°42'6 6.2
2016-Nov-30 11:32N 18°20' W 064°48'8 7.6
2016-Nov-30 10:33N 18°23' W 064°41'3 0.2
2016-Nov-29 22:33N 18°24' W 064°38'10 4.8
2016-Nov-29 20:27N 18°20' W 064°48'2 2.6
2016-Nov-29 19:33N 18°22' W 064°46'4 1.8
2016-Nov-29 17:16N 18°20' W 064°50'810.9
2016-Nov-29 16:30N 18°23' W 064°42'8 2.5
2016-Nov-29 13:16N 18°20' W 064°50'811.0
2016-Nov-29 12:32N 18°23' W 064°42'8 8.1
2016-Nov-29 11:31N 18°20' W 064°50'8 8.2
2016-Nov-29 10:33N 18°23' W 064°42'2 0.2
2016-Nov-28 21:33N 18°23' W 064°45'4 3.8
2016-Nov-28 20:32N 18°20' W 064°48'4 3.8
2016-Nov-28 19:33N 18°23' W 064°45'6 2.8
2016-Nov-28 17:29N 18°20' W 064°50'8 8.6
2016-Nov-28 16:32N 18°23' W 064°42'8 2.6
2016-Nov-28 13:33N 18°20' W 064°49'5 5.3
2016-Nov-28 12:33N 18°23' W 064°45'4 3.0
2016-Nov-28 11:18N 18°20' W 064°48'9 0.6
2016-Nov-27 20:23N 18°23' W 064°39'6 7.4
2016-Nov-27 19:33N 18°22' W 064°45'5 0.2
2016-Nov-26 22:14N 18°20' W 064°49'6 8.4
2016-Nov-26 21:33N 18°23' W 064°44'6 0.3
2016-Nov-25 22:17N 18°24' W 064°38'1212.2
2016-Nov-25 21:17N 18°20' W 064°50'3 3.5
2016-Nov-25 20:33N 18°21' W 064°47'2 0.8
2016-Nov-25 17:26N 18°20' W 064°50'8 7.8
2016-Nov-25 16:25N 18°23' W 064°42'  

Dump ship's entire track history